Blue Hill, Maine
Current Conditions -  °F | °C
As of 6:15 PM on Wednesday 22 Oct 2014 (Local Time) from KBHB Reporting Station
Overcast Overcast  
Wind Chill: 40°   Ceiling: 1000
Heat Index: 46°   Visibility: 10mi
Dew Point: 45°   Wind: 16mph
Humidity: 93%   Direction: 30°NNE
Pressure: 30.13"   Gusts: 22mph
Location:  44.43°N, 68.59°W
Report Text: KBHB 222215Z AUTO 03014G19KT 10SM OVC010 08/07 A3013 RMK AO1
Loading
Personal Weather Stations






























Interactive Weather Map
Tropical Storm Tracking
New forecast layout! Learn more

10-Day Weather Forecast

Advertisements
Track Severe Weather on mobile